Enniskillen, United Kingdom
Current Conditions -  °F | °C
As of 6:00 PM on Thursday 23 Oct 2014 (Local Time) from EISG Reporting Station
Broken Clouds Broken Clouds  
Wind Chill: 54°   Ceiling: 2400
Heat Index: 54°   Visibility: 4mi
Dew Point: 50°   Wind: 8mph
Humidity: 88%   Direction: 220°SW
Pressure: 29.77"   Gusts: NA
Location:  54.35°N, 7.64°W
Report Text: EISG 231700Z 22007KT 6000 BKN024 BKN034 12/10 Q1008
Loading
Personal Weather Stations






























Interactive Weather Map
Tropical Storm Tracking
New forecast layout! Learn more

10-Day Weather Forecast

Advertisements
Track Severe Weather on mobile